Time;durP1;ratioP1;P1;durP2;ratioP2;P2;SDS_P1;SDS_P2;PMS_P1;PMS_P2;Temp;Humidity;BMP_temperature;BMP_pressure;BME280_temperature;BME280_humidity;BME280_pressure;Samples;Min_cycle;Max_cycle;Signal;HPM_P1;HPM_P2
2022/01/02 00:00:37;;;;;;;34.88;12.93;;;7.10;99.90;;;;;;5025239;28;20210;-72
2022/01/02 00:03:25;;;;;;;27.23;15.10;;;7.00;99.90;;;;;;5027468;28;20213;-71
2022/01/02 00:06:13;;;;;;;29.30;15.05;;;6.90;99.90;;;;;;5029621;28;20253;-72
2022/01/02 00:09:03;;;;;;;21.80;13.40;;;6.90;99.90;;;;;;5031551;28;20201;-73
2022/01/02 00:11:54;;;;;;;135.00;16.77;;;7.00;99.90;;;;;;5025590;28;21064;-73
2022/01/02 00:14:44;;;;;;;18.40;12.60;;;7.10;99.90;;;;;;5025874;28;20456;-72
2022/01/02 00:17:31;;;;;;;27.63;13.03;;;7.00;99.90;;;;;;5032031;28;20424;-72
2022/01/02 00:20:21;;;;;;;19.80;13.32;;;6.90;99.90;;;;;;5034386;28;20429;-72
2022/01/02 00:23:07;;;;;;;21.33;12.70;;;6.80;99.90;;;;;;5030497;28;20213;-72
2022/01/02 00:25:54;;;;;;;23.57;12.20;;;6.80;99.90;;;;;;5023289;28;20491;-72
2022/01/02 00:28:43;;;;;;;16.45;12.60;;;6.70;99.90;;;;;;5032940;28;20436;-72
2022/01/02 00:31:30;;;;;;;14.17;12.30;;;6.70;99.90;;;;;;5028698;28;20276;-71
2022/01/02 00:34:16;;;;;;;20.27;11.73;;;6.70;99.90;;;;;;5023528;28;20452;-72
2022/01/02 00:37:02;;;;;;;15.90;11.03;;;6.60;99.90;;;;;;5032751;28;20204;-71
2022/01/02 00:39:47;;;;;;;14.93;10.90;;;6.60;99.90;;;;;;5028737;28;20419;-72
2022/01/02 00:42:37;;;;;;;14.67;11.20;;;6.70;99.90;;;;;;5031020;28;20225;-72
2022/01/02 00:45:27;;;;;;;16.17;11.25;;;6.80;99.90;;;;;;5021229;28;20431;-72
2022/01/02 00:48:17;;;;;;;17.75;10.90;;;6.70;99.90;;;;;;5024434;28;20230;-72
2022/01/02 00:51:05;;;;;;;15.98;11.50;;;6.60;99.90;;;;;;5033851;28;20221;-72
2022/01/02 00:53:55;;;;;;;15.02;11.25;;;6.50;99.90;;;;;;5021255;28;20344;-72
2022/01/02 00:56:47;;;;;;;21.17;14.47;;;6.50;99.90;;;;;;5029170;28;20213;-72
2022/01/02 00:59:45;;;;;;;17.50;11.80;;;6.30;99.90;;;;;;5029649;28;20496;-73
2022/01/02 01:02:39;;;;;;;18.47;12.10;;;6.30;99.90;;;;;;5025924;28;20359;-72
2022/01/02 01:05:26;;;;;;;17.40;12.40;;;6.40;99.90;;;;;;5033823;28;20805;-72
2022/01/02 01:08:12;;;;;;;19.35;12.00;;;6.40;99.90;;;;;;5032571;28;20472;-72
2022/01/02 01:10:59;;;;;;;28.97;12.97;;;6.40;99.90;;;;;;5030284;28;20225;-72
2022/01/02 01:13:45;;;;;;;24.40;12.75;;;6.20;99.90;;;;;;5022138;28;20452;-73
2022/01/02 01:16:33;;;;;;;22.43;12.77;;;6.20;99.90;;;;;;5028751;28;20730;-72
2022/01/02 01:19:20;;;;;;;21.75;13.27;;;6.30;99.90;;;;;;5033436;28;20562;-73
2022/01/02 01:22:06;;;;;;;21.15;12.73;;;6.20;99.90;;;;;;5020962;28;20590;-72
2022/01/02 01:24:51;;;;;;;24.33;13.13;;;6.10;99.90;;;;;;5033093;28;20337;-73
2022/01/02 01:27:37;;;;;;;17.60;12.32;;;6.10;99.90;;;;;;5029635;28;20487;-73
2022/01/02 01:30:25;;;;;;;19.80;13.37;;;6.10;99.90;;;;;;5021913;28;20217;-72
2022/01/02 01:33:11;;;;;;;18.90;13.53;;;6.20;99.90;;;;;;5018890;28;20412;-72
2022/01/02 01:35:58;;;;;;;15.87;12.03;;;6.20;99.90;;;;;;5031549;28;20511;-73
2022/01/02 01:38:44;;;;;;;23.52;12.38;;;6.20;99.90;;;;;;5020764;28;20907;-73
2022/01/02 01:41:33;;;;;;;14.98;11.55;;;6.30;99.90;;;;;;5030896;28;20518;-72
2022/01/02 01:44:27;;;;;;;16.90;11.90;;;6.30;99.90;;;;;;5030486;28;20337;-72
2022/01/02 01:47:13;;;;;;;29.93;11.17;;;6.40;99.90;;;;;;5031074;28;20443;-72
2022/01/02 01:49:59;;;;;;;22.60;11.33;;;6.30;99.90;;;;;;5028544;28;20443;-72
2022/01/02 01:52:46;;;;;;;15.38;11.20;;;6.30;99.90;;;;;;5026850;28;20443;-72
2022/01/02 01:55:32;;;;;;;13.55;10.60;;;6.30;99.90;;;;;;5021145;28;20725;-72
2022/01/02 01:58:18;;;;;;;14.02;10.73;;;6.20;99.90;;;;;;5033153;28;20356;-72
2022/01/02 02:01:04;;;;;;;12.82;8.77;;;6.20;99.90;;;;;;5031264;28;20289;-72
2022/01/02 02:03:50;;;;;;;12.75;10.27;;;6.00;99.90;;;;;;5030371;28;20280;-72
2022/01/02 02:06:36;;;;;;;14.48;9.93;;;6.00;99.90;;;;;;5030095;28;20563;-72
2022/01/02 02:09:28;;;;;;;12.77;10.32;;;6.00;99.90;;;;;;5032820;28;20365;-72
2022/01/02 02:12:14;;;;;;;11.23;9.45;;;5.90;99.90;;;;;;5025385;28;20640;-72
2022/01/02 02:15:00;;;;;;;11.90;10.50;;;5.80;99.90;;;;;;5033234;28;20205;-72
2022/01/02 02:17:48;;;;;;;13.43;10.55;;;5.70;99.90;;;;;;5031014;28;20440;-72
2022/01/02 02:20:36;;;;;;;12.65;9.93;;;5.70;99.90;;;;;;5032538;28;20197;-72
2022/01/02 02:23:22;;;;;;;14.32;10.25;;;5.70;99.90;;;;;;5027463;28;20231;-73
2022/01/02 02:26:07;;;;;;;10.77;9.48;;;5.70;99.90;;;;;;5031709;28;20686;-73
2022/01/02 02:28:53;;;;;;;15.48;11.63;;;5.70;99.90;;;;;;5026520;28;20284;-72
2022/01/02 02:31:39;;;;;;;13.25;9.63;;;5.80;99.90;;;;;;5045925;22;20224;-73
2022/01/02 02:34:24;;;;;;;13.20;10.13;;;5.70;99.90;;;;;;5046664;28;20325;-72
2022/01/02 02:37:11;;;;;;;12.40;8.27;;;5.90;99.90;;;;;;5049680;28;20451;-73
2022/01/02 02:39:57;;;;;;;12.90;10.75;;;5.90;99.90;;;;;;5044967;28;20418;-73
2022/01/02 02:42:48;;;;;;;12.15;10.40;;;5.80;99.90;;;;;;5033463;28;20348;-73
2022/01/02 02:51:51;;;;;;;10.20;9.07;;;5.60;99.90;;;;;;5020893;28;20221;-72
2022/01/02 02:54:40;;;;;;;10.75;8.77;;;5.60;99.90;;;;;;5021619;28;20898;-72
2022/01/02 02:57:25;;;;;;;12.80;9.85;;;5.70;99.90;;;;;;5024829;28;20561;-72
2022/01/02 03:00:12;;;;;;;11.38;8.80;;;5.70;99.90;;;;;;5017989;28;20201;-72
2022/01/02 03:02:57;;;;;;;12.77;9.88;;;5.70;99.90;;;;;;5023601;28;20230;-73
2022/01/02 03:05:43;;;;;;;10.88;8.35;;;5.80;99.90;;;;;;5023320;28;20701;-72
2022/01/02 03:08:29;;;;;;;11.50;8.90;;;5.80;99.90;;;;;;5024582;28;20299;-73
2022/01/02 03:11:20;;;;;;;9.13;7.63;;;5.80;99.90;;;;;;5027701;28;20225;-72
2022/01/02 03:14:06;;;;;;;9.02;7.10;;;5.80;99.90;;;;;;5025692;28;20218;-72
2022/01/02 03:16:52;;;;;;;12.93;8.13;;;5.80;99.90;;;;;;5019313;28;20213;-72
2022/01/02 03:19:37;;;;;;;12.48;7.82;;;5.70;99.90;;;;;;5023562;28;20212;-72
2022/01/02 03:22:23;;;;;;;10.73;8.63;;;5.60;99.90;;;;;;5020255;28;20252;-73
2022/01/02 03:25:13;;;;;;;9.52;8.10;;;5.50;99.90;;;;;;5028540;28;20615;-72
2022/01/02 03:28:00;;;;;;;8.48;7.57;;;5.50;99.90;;;;;;5027085;28;20222;-72
2022/01/02 03:30:46;;;;;;;10.88;8.85;;;5.50;99.90;;;;;;5021116;28;20216;-73
2022/01/02 03:33:32;;;;;;;13.45;7.82;;;5.60;99.90;;;;;;5024431;28;20213;-72
2022/01/02 03:36:18;;;;;;;10.10;8.27;;;5.70;99.90;;;;;;5025916;28;20215;-72
2022/01/02 03:39:04;;;;;;;8.20;7.40;;;5.60;99.90;;;;;;5026777;28;20260;-72
2022/01/02 03:41:50;;;;;;;9.45;8.15;;;5.60;99.90;;;;;;5021677;28;20328;-72
2022/01/02 03:44:37;;;;;;;9.32;7.93;;;5.70;99.90;;;;;;5027214;28;20212;-71
2022/01/02 03:47:23;;;;;;;10.93;7.72;;;5.60;99.90;;;;;;5025872;28;20713;-73
2022/01/02 03:50:10;;;;;;;8.60;6.20;;;5.60;99.90;;;;;;5022518;28;20285;-72
2022/01/02 03:52:56;;;;;;;10.27;7.30;;;5.40;99.90;;;;;;5024884;28;20232;-72
2022/01/02 03:55:42;;;;;;;10.75;7.60;;;5.40;99.90;;;;;;5021808;28;20267;-73
2022/01/02 03:58:28;;;;;;;11.90;9.30;;;5.30;99.90;;;;;;5011652;28;20268;-73
2022/01/02 04:01:14;;;;;;;8.45;7.40;;;5.40;99.90;;;;;;5017580;28;20334;-72
2022/01/02 04:04:00;;;;;;;9.32;7.75;;;5.50;99.90;;;;;;5024002;28;20213;-72
2022/01/02 04:06:46;;;;;;;11.07;8.15;;;5.60;99.90;;;;;;5025226;28;20224;-73
2022/01/02 04:09:32;;;;;;;10.15;8.27;;;5.70;99.90;;;;;;5019518;28;20202;-73
2022/01/02 04:12:17;;;;;;;9.20;7.53;;;5.80;99.90;;;;;;5024565;28;20238;-72
2022/01/02 04:15:07;;;;;;;10.85;7.15;;;5.70;99.90;;;;;;5022529;28;20208;-72
2022/01/02 04:17:54;;;;;;;11.38;7.00;;;5.80;99.90;;;;;;5026633;28;20314;-71
2022/01/02 04:20:40;;;;;;;12.98;8.38;;;5.80;99.90;;;;;;5020434;28;20691;-72
2022/01/02 04:23:25;;;;;;;10.93;7.93;;;5.60;99.90;;;;;;5028527;28;20736;-72
2022/01/02 04:26:11;;;;;;;10.50;8.30;;;5.70;99.90;;;;;;5030517;28;20594;-72
2022/01/02 04:28:57;;;;;;;10.60;7.90;;;5.70;99.90;;;;;;5013151;28;20269;-72
2022/01/02 04:31:42;;;;;;;10.15;8.50;;;5.80;99.90;;;;;;5017000;28;20236;-72
2022/01/02 04:34:29;;;;;;;14.02;8.40;;;5.90;99.90;;;;;;5023931;28;20620;-73
2022/01/02 04:37:15;;;;;;;9.30;7.57;;;5.90;99.90;;;;;;5027930;28;20216;-73
2022/01/02 04:40:00;;;;;;;10.75;7.95;;;5.90;99.90;;;;;;5023040;28;20444;-72
2022/01/02 04:42:46;;;;;;;10.05;7.50;;;6.00;99.90;;;;;;5027809;28;20257;-73
2022/01/02 04:45:32;;;;;;;11.23;8.05;;;5.90;99.90;;;;;;5012646;28;20206;-72
2022/01/02 04:48:18;;;;;;;10.20;7.95;;;5.90;99.90;;;;;;5028838;28;20710;-71
2022/01/02 04:51:05;;;;;;;12.73;8.90;;;5.80;99.90;;;;;;5026702;28;20209;-72
2022/01/02 04:53:51;;;;;;;9.57;8.20;;;5.80;99.90;;;;;;5026536;28;20272;-73
2022/01/02 04:56:36;;;;;;;10.80;8.30;;;5.70;99.90;;;;;;5022003;28;20485;-72
2022/01/02 04:59:22;;;;;;;12.15;8.85;;;5.80;99.90;;;;;;5017455;28;20316;-73
2022/01/02 05:02:07;;;;;;;13.43;9.45;;;5.70;99.90;;;;;;5025080;28;20218;-72
2022/01/02 05:04:53;;;;;;;10.25;8.43;;;5.50;99.90;;;;;;5028349;28;20221;-71
2022/01/02 05:07:40;;;;;;;10.65;9.05;;;5.60;99.90;;;;;;5028452;28;20210;-73
2022/01/02 05:10:26;;;;;;;10.05;8.45;;;5.70;99.90;;;;;;5032068;28;20204;-73
2022/01/02 05:13:12;;;;;;;11.57;8.90;;;5.80;99.90;;;;;;5028029;28;20733;-73
2022/01/02 05:15:57;;;;;;;9.65;8.65;;;5.90;99.90;;;;;;5021323;28;20337;-72
2022/01/02 05:18:43;;;;;;;10.63;7.82;;;5.90;99.90;;;;;;5024226;28;20206;-72
2022/01/02 05:21:29;;;;;;;8.70;7.38;;;6.00;99.90;;;;;;5030146;28;20241;-72
2022/01/02 05:24:16;;;;;;;10.80;8.52;;;6.00;99.90;;;;;;5020342;28;20283;-73
2022/01/02 05:27:01;;;;;;;9.90;7.47;;;6.10;99.90;;;;;;5031138;28;20205;-73
2022/01/02 05:29:47;;;;;;;11.07;9.20;;;6.00;99.90;;;;;;5026746;28;20234;-72
2022/01/02 05:32:33;;;;;;;12.00;8.35;;;6.00;99.90;;;;;;5019715;28;20240;-72
2022/01/02 05:35:18;;;;;;;10.15;7.93;;;6.00;99.90;;;;;;5026765;28;20317;-72
2022/01/02 05:38:04;;;;;;;10.88;7.95;;;5.90;99.90;;;;;;5029136;28;20273;-72
2022/01/02 05:40:52;;;;;;;10.25;7.40;;;5.90;99.90;;;;;;5025622;28;20280;-73
2022/01/02 05:43:38;;;;;;;10.85;8.50;;;6.00;99.90;;;;;;5025971;28;20209;-73
2022/01/02 05:46:24;;;;;;;10.25;8.23;;;6.10;99.90;;;;;;5030353;28;20201;-73
2022/01/02 05:49:11;;;;;;;11.07;7.87;;;6.10;99.90;;;;;;5027506;28;20229;-72
2022/01/02 05:51:56;;;;;;;12.88;9.30;;;6.00;99.90;;;;;;5026354;28;20472;-73
2022/01/02 05:54:42;;;;;;;13.90;11.07;;;6.00;99.90;;;;;;5019630;28;20213;-72
2022/01/02 05:57:29;;;;;;;11.90;10.20;;;6.10;99.90;;;;;;5029160;28;20246;-72
2022/01/02 06:00:15;;;;;;;13.00;10.57;;;6.00;99.90;;;;;;5027713;28;20210;-72
2022/01/02 06:03:00;;;;;;;14.25;10.98;;;6.00;99.90;;;;;;5031124;28;20225;-71
2022/01/02 06:05:46;;;;;;;13.45;10.13;;;6.00;99.90;;;;;;5028223;28;20213;-73
2022/01/02 06:08:32;;;;;;;12.20;10.13;;;6.00;99.90;;;;;;5019444;28;20591;-73
2022/01/02 06:11:17;;;;;;;11.80;9.70;;;6.00;99.90;;;;;;5032215;28;20201;-72
2022/01/02 06:14:04;;;;;;;16.35;10.63;;;5.90;99.90;;;;;;5022962;28;20210;-72
2022/01/02 06:16:50;;;;;;;14.05;8.90;;;5.90;99.90;;;;;;5026708;28;20228;-71
2022/01/02 06:19:36;;;;;;;12.70;9.02;;;6.10;99.90;;;;;;5022475;28;20245;-73
2022/01/02 06:22:21;;;;;;;22.52;9.88;;;6.00;99.90;;;;;;5030894;28;20229;-72
2022/01/02 06:25:08;;;;;;;13.35;9.45;;;6.00;99.90;;;;;;5029803;28;20206;-73
2022/01/02 06:27:53;;;;;;;11.90;9.57;;;6.10;99.90;;;;;;5025582;28;20205;-73
2022/01/02 06:30:40;;;;;;;10.38;8.60;;;6.20;99.90;;;;;;5026967;28;20324;-72
2022/01/02 06:33:26;;;;;;;12.45;9.45;;;6.30;99.90;;;;;;5032426;28;20745;-72
2022/01/02 06:36:12;;;;;;;10.77;8.55;;;6.40;99.90;;;;;;5024399;28;20674;-72
2022/01/02 06:38:58;;;;;;;12.50;9.30;;;6.50;99.90;;;;;;5023074;28;20217;-73
2022/01/02 06:41:43;;;;;;;14.63;10.18;;;6.30;99.90;;;;;;5017399;28;20468;-73
2022/01/02 06:44:29;;;;;;;13.23;10.75;;;6.30;99.90;;;;;;5018411;28;20206;-73
2022/01/02 06:47:16;;;;;;;13.13;9.90;;;6.40;99.90;;;;;;5027533;28;20202;-72
2022/01/02 06:50:01;;;;;;;16.55;11.00;;;6.40;99.90;;;;;;5025233;28;20315;-71
2022/01/02 06:52:46;;;;;;;13.05;10.32;;;6.30;99.90;;;;;;5020104;28;20250;-73
2022/01/02 06:55:32;;;;;;;21.85;11.23;;;6.40;99.90;;;;;;5018961;28;20201;-73
2022/01/02 06:58:18;;;;;;;21.52;12.30;;;6.50;99.90;;;;;;5019742;28;20326;-73
2022/01/02 07:01:03;;;;;;;14.70;12.38;;;6.40;99.90;;;;;;5023297;28;20271;-71
2022/01/02 07:03:50;;;;;;;14.00;10.40;;;6.30;99.90;;;;;;5029444;28;20206;-72
2022/01/02 07:06:36;;;;;;;15.57;9.70;;;6.20;99.90;;;;;;5013953;28;20220;-71
2022/01/02 07:09:22;;;;;;;14.43;10.77;;;6.20;99.90;;;;;;5023150;28;20916;-72
2022/01/02 07:12:08;;;;;;;12.40;11.10;;;6.20;99.90;;;;;;5021763;28;20230;-72
2022/01/02 07:14:53;;;;;;;25.83;11.63;;;6.30;99.90;;;;;;5023055;28;20202;-72
2022/01/02 07:17:39;;;;;;;13.55;10.82;;;6.30;99.90;;;;;;5025280;28;20209;-72
2022/01/02 07:20:26;;;;;;;12.90;11.35;;;6.30;99.90;;;;;;5022663;28;20202;-72
2022/01/02 07:23:12;;;;;;;12.73;10.80;;;6.30;99.90;;;;;;5022596;28;20705;-71
2022/01/02 07:25:57;;;;;;;14.43;11.10;;;6.40;99.90;;;;;;5023863;28;20571;-72
2022/01/02 07:28:43;;;;;;;13.23;10.73;;;6.40;99.90;;;;;;5015743;28;20577;-71
2022/01/02 07:31:29;;;;;;;13.27;10.68;;;6.40;99.90;;;;;;5030628;28;20311;-71
2022/01/02 07:34:14;;;;;;;13.15;11.73;;;6.50;99.90;;;;;;5028366;28;20262;-72
2022/01/02 07:37:01;;;;;;;14.70;12.10;;;6.50;99.90;;;;;;5018866;28;20206;-72
2022/01/02 07:39:47;;;;;;;15.05;12.40;;;6.50;99.90;;;;;;5019723;28;20621;-71
2022/01/02 07:42:33;;;;;;;14.57;12.80;;;6.50;99.90;;;;;;5021865;28;20226;-72
2022/01/02 07:45:19;;;;;;;15.65;13.23;;;6.40;99.90;;;;;;5021416;28;20209;-71
2022/01/02 07:48:06;;;;;;;19.05;13.65;;;6.50;99.90;;;;;;5025282;28;20206;-72
2022/01/02 07:50:51;;;;;;;15.20;11.75;;;6.60;99.90;;;;;;5025337;28;20272;-72
2022/01/02 07:53:38;;;;;;;17.20;13.50;;;6.50;99.90;;;;;;5025901;28;20278;-71
2022/01/02 07:56:25;;;;;;;20.63;14.33;;;6.50;99.90;;;;;;5024784;28;20463;-72
2022/01/02 07:59:10;;;;;;;19.20;13.85;;;6.50;99.90;;;;;;5026052;28;20419;-71
2022/01/02 08:01:56;;;;;;;28.02;14.50;;;6.40;99.90;;;;;;5018431;28;20226;-72
2022/01/02 08:04:41;;;;;;;18.92;14.50;;;6.60;99.90;;;;;;5027816;28;20253;-72
2022/01/02 08:07:27;;;;;;;23.20;13.63;;;6.60;99.90;;;;;;5027409;28;20564;-72
2022/01/02 08:10:14;;;;;;;16.90;13.50;;;6.60;99.90;;;;;;5031604;28;20451;-72
2022/01/02 08:13:00;;;;;;;17.27;14.00;;;6.80;99.90;;;;;;5024961;28;20473;-72
2022/01/02 08:15:48;;;;;;;19.33;14.07;;;6.90;99.90;;;;;;5019052;28;20980;-72
2022/01/02 08:18:33;;;;;;;16.88;13.20;;;7.00;99.90;;;;;;5029291;28;20607;-72
2022/01/02 08:21:19;;;;;;;17.53;13.00;;;7.00;99.90;;;;;;5019798;28;20209;-72
2022/01/02 08:24:05;;;;;;;17.35;12.63;;;7.20;99.90;;;;;;5020319;28;20493;-72
2022/01/02 08:26:52;;;;;;;16.47;12.30;;;7.20;99.90;;;;;;5022022;28;20205;-71
2022/01/02 08:29:37;;;;;;;15.37;10.97;;;7.20;99.90;;;;;;5020742;28;20468;-72
2022/01/02 08:32:24;;;;;;;15.10;12.70;;;7.40;99.90;;;;;;5039575;22;20603;-72
2022/01/02 08:35:09;;;;;;;16.50;13.70;;;7.50;99.90;;;;;;5043391;28;20248;-71
2022/01/02 08:37:55;;;;;;;17.40;14.33;;;7.40;99.90;;;;;;5043013;28;21078;-72
2022/01/02 08:40:41;;;;;;;22.52;15.48;;;7.40;99.90;;;;;;5048745;28;21067;-72
2022/01/02 08:43:28;;;;;;;30.58;15.55;;;7.40;99.90;;;;;;5034390;28;20228;-72
2022/01/02 08:46:14;;;;;;;21.73;17.30;;;7.40;99.90;;;;;;5030174;28;20686;-72
2022/01/02 08:49:00;;;;;;;25.03;17.20;;;7.60;99.90;;;;;;5024563;28;20550;-72
2022/01/02 08:51:46;;;;;;;24.03;19.70;;;7.70;99.90;;;;;;5022715;28;20603;-72
2022/01/02 08:54:32;;;;;;;21.73;17.73;;;7.70;99.90;;;;;;5025546;28;20487;-72
2022/01/02 08:57:17;;;;;;;25.60;17.02;;;7.80;99.90;;;;;;5032686;28;20440;-72
2022/01/02 09:00:06;;;;;;;17.93;14.60;;;7.80;99.90;;;;;;5031457;28;20702;-72
2022/01/02 09:02:52;;;;;;;18.93;15.40;;;7.80;99.90;;;;;;5031574;28;20530;-72
2022/01/02 09:05:37;;;;;;;17.70;14.00;;;7.80;99.90;;;;;;5027469;28;20427;-72
2022/01/02 09:08:23;;;;;;;19.27;14.60;;;7.80;99.90;;;;;;5034660;28;20425;-72
2022/01/02 09:11:08;;;;;;;20.70;14.10;;;7.90;99.90;;;;;;5034484;28;20383;-72
2022/01/02 09:13:55;;;;;;;16.60;13.77;;;7.90;99.90;;;;;;5033811;28;20454;-72
2022/01/02 09:16:44;;;;;;;17.50;13.13;;;8.00;99.90;;;;;;5033412;28;20429;-72
2022/01/02 09:19:30;;;;;;;22.07;14.77;;;8.10;99.90;;;;;;5014872;28;20413;-72
2022/01/02 09:22:16;;;;;;;19.47;13.80;;;8.20;99.90;;;;;;5014418;28;20451;-72
2022/01/02 09:25:02;;;;;;;21.57;15.13;;;8.30;99.90;;;;;;5022106;28;20463;-72
2022/01/02 09:27:48;;;;;;;15.10;13.00;;;8.30;99.90;;;;;;5035342;28;20538;-72
2022/01/02 09:30:33;;;;;;;18.60;14.20;;;8.40;99.90;;;;;;5014447;28;20461;-72
2022/01/02 09:33:20;;;;;;;17.20;14.77;;;8.40;99.90;;;;;;5013963;28;20250;-72
2022/01/02 09:36:07;;;;;;;16.30;14.37;;;8.50;99.90;;;;;;5032218;28;20407;-72
2022/01/02 09:38:54;;;;;;;18.20;13.60;;;8.60;99.90;;;;;;5034353;28;20439;-70
2022/01/02 09:41:40;;;;;;;17.70;12.90;;;8.60;99.90;;;;;;5026919;28;20463;-72
2022/01/02 09:44:29;;;;;;;18.17;15.13;;;8.60;99.90;;;;;;5019432;28;20423;-70
2022/01/02 09:47:20;;;;;;;20.83;14.87;;;8.70;99.90;;;;;;5013849;28;20885;-70
2022/01/02 09:50:08;;;;;;;22.00;14.13;;;8.60;99.90;;;;;;5025243;28;20439;-70
2022/01/02 09:52:54;;;;;;;14.67;11.60;;;8.60;99.90;;;;;;5023061;28;20420;-70
2022/01/02 09:55:41;;;;;;;7.43;4.10;;;8.70;99.90;;;;;;5023953;28;20440;-70
2022/01/02 09:58:27;;;;;;;5.67;4.30;;;9.00;99.90;;;;;;5023448;28;20415;-70
2022/01/02 10:01:16;;;;;;;5.17;3.03;;;9.30;99.90;;;;;;5021467;28;20445;-70
2022/01/02 10:04:02;;;;;;;5.10;3.00;;;9.50;99.90;;;;;;5021579;28;20457;-70
2022/01/02 10:06:50;;;;;;;4.00;2.67;;;9.80;99.90;;;;;;5017690;28;20429;-70
2022/01/02 10:09:38;;;;;;;4.93;2.93;;;10.00;99.90;;;;;;5015475;28;20582;-70
2022/01/02 10:12:29;;;;;;;5.93;3.37;;;10.20;99.90;;;;;;5031957;28;20887;-70
2022/01/02 10:15:20;;;;;;;5.10;3.20;;;10.30;99.90;;;;;;5021641;28;20993;-70
2022/01/02 10:18:07;;;;;;;5.10;3.50;;;10.50;99.90;;;;;;5019013;28;20432;-70
2022/01/02 10:20:52;;;;;;;6.57;4.17;;;10.60;99.90;;;;;;5024423;28;20413;-70
2022/01/02 10:23:39;;;;;;;5.70;4.03;;;10.70;99.90;;;;;;5028431;28;20834;-70
2022/01/02 10:26:25;;;;;;;5.37;3.70;;;10.70;99.90;;;;;;5028699;28;20544;-70
2022/01/02 10:29:12;;;;;;;7.77;3.80;;;10.80;99.90;;;;;;5026106;28;20433;-70
2022/01/02 10:31:58;;;;;;;7.40;4.13;;;10.80;99.90;;;;;;5024480;28;20566;-70
2022/01/02 10:34:43;;;;;;;5.67;3.90;;;10.70;99.90;;;;;;5021142;28;20500;-70
2022/01/02 10:37:29;;;;;;;6.77;4.10;;;10.70;99.90;;;;;;5029020;28;20916;-70
2022/01/02 10:40:28;;;;;;;8.40;3.77;;;10.70;99.90;;;;;;5026902;28;20857;-70
2022/01/02 10:43:25;;;;;;;4.93;3.60;;;10.70;99.90;;;;;;5021326;28;20484;-70
2022/01/02 10:46:10;;;;;;;5.63;3.47;;;10.70;99.90;;;;;;5025265;28;20395;-70
2022/01/02 10:48:56;;;;;;;9.43;4.27;;;10.60;99.90;;;;;;5024676;28;20933;-70
2022/01/02 10:51:42;;;;;;;4.63;3.60;;;10.60;99.90;;;;;;5018701;28;20475;-70
2022/01/02 10:54:34;;;;;;;6.90;3.80;;;10.70;99.90;;;;;;5024661;28;20491;-70
2022/01/02 10:57:21;;;;;;;4.47;3.30;;;10.70;99.90;;;;;;5022783;28;20798;-70
2022/01/02 11:00:08;;;;;;;10.00;6.37;;;10.70;99.90;;;;;;5029662;28;20892;-70
2022/01/02 11:02:54;;;;;;;5.50;3.63;;;10.80;99.90;;;;;;5021029;28;20528;-70
2022/01/02 11:05:41;;;;;;;4.73;3.70;;;10.80;99.90;;;;;;5024880;28;20455;-70
2022/01/02 11:08:30;;;;;;;6.27;3.40;;;10.80;99.90;;;;;;5027386;28;20400;-70
2022/01/02 11:11:19;;;;;;;5.47;3.40;;;10.80;99.90;;;;;;5011636;28;20440;-70
2022/01/02 11:14:06;;;;;;;4.40;3.17;;;10.70;99.90;;;;;;5023320;28;20426;-70
2022/01/02 11:16:52;;;;;;;4.93;3.37;;;10.70;99.90;;;;;;5015576;28;20520;-70
2022/01/02 11:19:38;;;;;;;4.63;3.23;;;10.60;99.90;;;;;;5011386;28;20536;-70
2022/01/02 11:22:32;;;;;;;5.67;3.37;;;10.60;99.90;;;;;;5016037;28;21403;-70
2022/01/02 11:25:27;;;;;;;11.50;2.83;;;10.70;99.90;;;;;;5017514;28;20551;-70
2022/01/02 11:28:37;;;;;;;5.93;3.13;;;10.60;99.90;;;;;;5028245;28;20435;-71
2022/01/02 11:31:32;;;;;;;5.17;3.03;;;10.70;99.90;;;;;;5024925;28;20510;-72
2022/01/02 11:34:23;;;;;;;4.67;2.67;;;10.80;99.90;;;;;;5016884;28;20524;-71
2022/01/02 11:37:24;;;;;;;4.27;3.03;;;10.80;99.90;;;;;;5023437;28;20407;-71
2022/01/02 11:40:10;;;;;;;5.40;2.80;;;10.90;99.90;;;;;;5018959;28;20414;-71
2022/01/02 11:42:55;;;;;;;4.53;2.80;;;10.90;99.90;;;;;;5018415;28;20588;-71
2022/01/02 11:45:44;;;;;;;4.10;2.80;;;11.00;99.90;;;;;;5025679;28;20429;-72
2022/01/02 11:48:31;;;;;;;4.40;2.87;;;11.10;99.90;;;;;;5029465;28;20428;-71
2022/01/02 11:51:17;;;;;;;3.43;2.33;;;11.20;99.90;;;;;;5029162;28;20484;-72
2022/01/02 11:54:03;;;;;;;4.07;2.90;;;11.40;99.90;;;;;;5027938;28;20597;-72
2022/01/02 11:56:48;;;;;;;9.40;3.40;;;11.50;99.90;;;;;;5026460;28;20645;-71
2022/01/02 11:59:55;;;;;;;5.00;3.07;;;11.70;99.90;;;;;;5022058;28;20946;-71
2022/01/02 12:02:41;;;;;;;4.80;2.73;;;11.70;99.90;;;;;;5021430;28;21515;-72
2022/01/02 12:05:28;;;;;;;4.77;3.20;;;11.70;99.90;;;;;;5011240;28;21074;-71
2022/01/02 12:08:33;;;;;;;5.50;3.77;;;11.70;99.90;;;;;;5015899;28;20420;-71
2022/01/02 12:11:47;;;;;;;5.07;2.70;;;11.70;99.90;;;;;;5022997;28;20442;-72
2022/01/02 12:14:33;;;;;;;4.43;2.60;;;11.80;99.90;;;;;;5025973;28;20479;-71
2022/01/02 12:17:23;;;;;;;5.00;3.00;;;11.80;99.90;;;;;;5019848;28;20445;-72
2022/01/02 12:20:09;;;;;;;3.90;3.10;;;11.80;99.90;;;;;;5018202;28;20416;-71
2022/01/02 12:22:56;;;;;;;4.97;3.40;;;11.80;99.90;;;;;;5022061;28;20463;-71
2022/01/02 12:25:41;;;;;;;6.10;3.67;;;11.90;99.90;;;;;;5022524;28;20418;-71
2022/01/02 12:28:28;;;;;;;4.23;2.97;;;11.80;99.90;;;;;;5030675;28;20475;-71
2022/01/02 12:31:16;;;;;;;4.50;2.93;;;11.80;99.90;;;;;;5023754;28;20452;-72
2022/01/02 12:34:22;;;;;;;5.07;3.17;;;11.90;99.90;;;;;;5024616;28;20395;-72
2022/01/02 12:37:08;;;;;;;4.43;2.93;;;12.00;99.90;;;;;;5019612;28;20436;-72
2022/01/02 12:39:55;;;;;;;7.60;3.50;;;12.00;99.90;;;;;;5024366;28;20410;-72
2022/01/02 12:42:41;;;;;;;3.83;2.50;;;12.00;99.90;;;;;;5030873;28;20447;-72
2022/01/02 12:45:27;;;;;;;4.73;3.37;;;12.00;99.90;;;;;;5016139;28;20412;-71
2022/01/02 12:48:13;;;;;;;4.27;2.43;;;12.00;99.90;;;;;;5023878;28;20425;-71
2022/01/02 12:51:09;;;;;;;4.90;3.10;;;12.10;99.90;;;;;;5027157;28;20979;-71
2022/01/02 12:54:00;;;;;;;6.90;3.87;;;12.10;99.90;;;;;;5028854;28;20885;-71
2022/01/02 12:56:49;;;;;;;5.50;3.70;;;12.10;99.90;;;;;;5026667;28;20520;-71
2022/01/02 12:59:36;;;;;;;10.60;4.07;;;12.00;99.90;;;;;;5030601;28;20455;-72
2022/01/02 13:02:23;;;;;;;5.87;3.00;;;12.00;99.90;;;;;;5029076;28;20493;-72
2022/01/02 13:05:10;;;;;;;6.50;3.90;;;12.00;99.90;;;;;;5024059;28;20426;-71
2022/01/02 13:08:01;;;;;;;6.07;3.80;;;11.90;99.90;;;;;;5025392;28;20587;-72
2022/01/02 13:10:47;;;;;;;5.13;3.60;;;11.90;99.90;;;;;;5027730;28;20462;-72
2022/01/02 13:13:34;;;;;;;5.50;3.93;;;11.90;99.90;;;;;;5023856;28;20865;-72
2022/01/02 13:16:20;;;;;;;7.70;4.30;;;12.00;99.90;;;;;;5024271;28;20483;-72
2022/01/02 13:19:07;;;;;;;8.20;4.10;;;12.00;99.90;;;;;;5026650;28;20447;-72
2022/01/02 13:21:53;;;;;;;5.57;3.63;;;12.10;99.90;;;;;;5023471;28;20836;-72
2022/01/02 13:24:39;;;;;;;6.77;3.77;;;12.20;99.90;;;;;;5026849;28;20399;-72
2022/01/02 13:27:26;;;;;;;5.50;3.83;;;12.30;99.90;;;;;;5026036;28;20423;-72
2022/01/02 13:30:18;;;;;;;7.00;3.77;;;12.30;99.90;;;;;;5022465;28;21188;-72
2022/01/02 13:33:04;;;;;;;5.93;4.30;;;12.30;99.90;;;;;;5027600;28;20459;-72
2022/01/02 13:35:51;;;;;;;9.53;3.47;;;12.30;99.90;;;;;;5025322;28;20920;-72
2022/01/02 13:38:49;;;;;;;5.67;3.67;;;12.30;99.90;;;;;;5028608;28;20480;-71
2022/01/02 13:41:37;;;;;;;6.03;3.90;;;12.30;99.90;;;;;;5021221;28;20415;-72
2022/01/02 13:44:24;;;;;;;12.43;5.00;;;12.20;99.90;;;;;;5022927;28;20494;-72
2022/01/02 13:47:12;;;;;;;6.67;4.10;;;12.20;99.90;;;;;;5025922;28;20562;-72
2022/01/02 13:49:58;;;;;;;7.20;3.80;;;12.30;99.90;;;;;;5029869;28;20942;-71
2022/01/02 13:52:54;;;;;;;6.37;4.07;;;12.30;99.90;;;;;;5026091;28;20995;-72
2022/01/02 13:55:40;;;;;;;6.47;3.70;;;12.40;99.90;;;;;;5026740;28;20519;-72
2022/01/02 13:58:28;;;;;;;7.23;3.37;;;12.40;99.90;;;;;;5030502;28;20407;-72
2022/01/02 14:01:17;;;;;;;7.07;3.93;;;12.40;99.90;;;;;;5017703;28;20790;-72
2022/01/02 14:04:08;;;;;;;6.83;4.60;;;12.40;99.90;;;;;;5026887;28;20769;-72
2022/01/02 14:06:53;;;;;;;8.17;3.83;;;12.50;99.90;;;;;;5020178;28;21016;-72
2022/01/02 14:09:50;;;;;;;5.93;3.90;;;12.50;99.90;;;;;;5026990;28;20781;-71
2022/01/02 14:12:37;;;;;;;9.80;4.80;;;12.50;99.90;;;;;;5022558;28;20467;-71
2022/01/02 14:15:27;;;;;;;5.20;3.97;;;12.40;99.90;;;;;;5025627;28;20554;-71
2022/01/02 14:18:13;;;;;;;8.30;3.90;;;12.40;99.90;;;;;;5024870;28;20424;-71
2022/01/02 14:21:01;;;;;;;6.13;3.93;;;12.30;99.90;;;;;;5025791;28;20415;-71
2022/01/02 14:23:47;;;;;;;5.10;3.70;;;12.30;99.90;;;;;;5024294;28;20480;-72
2022/01/02 14:26:33;;;;;;;6.70;4.20;;;12.30;99.90;;;;;;5024462;28;20422;-72
2022/01/02 14:29:19;;;;;;;8.33;4.10;;;12.20;99.90;;;;;;5026835;28;20396;-72
2022/01/02 14:32:05;;;;;;;6.73;4.30;;;12.20;99.90;;;;;;5024840;28;20486;-72